sensor_id;sensor_type;location;lat;lon;timestamp;temperature;humidity
29547;DHT22;40782;47.264;11.330;2023-05-23T00:02:13;17.90;88.80
29547;DHT22;40782;47.264;11.330;2023-05-23T00:04:41;18.00;89.50
29547;DHT22;40782;47.264;11.330;2023-05-23T00:07:08;18.00;88.70
29547;DHT22;40782;47.264;11.330;2023-05-23T00:09:37;18.00;88.50
29547;DHT22;40782;47.264;11.330;2023-05-23T00:12:04;17.90;89.20
29547;DHT22;40782;47.264;11.330;2023-05-23T00:14:32;18.00;90.20
29547;DHT22;40782;47.264;11.330;2023-05-23T00:16:59;17.90;90.70
29547;DHT22;40782;47.264;11.330;2023-05-23T00:19:26;17.90;91.00
29547;DHT22;40782;47.264;11.330;2023-05-23T00:21:53;17.80;91.40
29547;DHT22;40782;47.264;11.330;2023-05-23T00:24:23;17.70;91.20
29547;DHT22;40782;47.264;11.330;2023-05-23T00:26:51;17.70;91.00
29547;DHT22;40782;47.264;11.330;2023-05-23T00:29:18;17.70;91.20
29547;DHT22;40782;47.264;11.330;2023-05-23T00:31:45;17.60;91.80
29547;DHT22;40782;47.264;11.330;2023-05-23T00:34:12;17.60;92.00
29547;DHT22;40782;47.264;11.330;2023-05-23T00:36:40;17.50;92.30
29547;DHT22;40782;47.264;11.330;2023-05-23T00:39:08;17.50;92.40
29547;DHT22;40782;47.264;11.330;2023-05-23T00:41:43;17.50;93.30
29547;DHT22;40782;47.264;11.330;2023-05-23T00:44:12;17.40;93.20
29547;DHT22;40782;47.264;11.330;2023-05-23T00:46:39;17.40;93.20
29547;DHT22;40782;47.264;11.330;2023-05-23T00:49:07;17.30;93.30
29547;DHT22;40782;47.264;11.330;2023-05-23T00:51:35;17.30;93.20
29547;DHT22;40782;47.264;11.330;2023-05-23T00:54:03;17.30;92.90
29547;DHT22;40782;47.264;11.330;2023-05-23T00:56:30;17.40;93.10
29547;DHT22;40782;47.264;11.330;2023-05-23T00:58:57;17.30;93.40
29547;DHT22;40782;47.264;11.330;2023-05-23T01:01:27;17.30;93.30
29547;DHT22;40782;47.264;11.330;2023-05-23T01:03:54;17.30;93.90
29547;DHT22;40782;47.264;11.330;2023-05-23T01:06:22;17.30;94.10
29547;DHT22;40782;47.264;11.330;2023-05-23T01:08:50;17.30;94.40
29547;DHT22;40782;47.264;11.330;2023-05-23T01:11:18;17.30;94.90
29547;DHT22;40782;47.264;11.330;2023-05-23T01:13:50;17.30;94.80
29547;DHT22;40782;47.264;11.330;2023-05-23T01:16:22;17.30;95.30
29547;DHT22;40782;47.264;11.330;2023-05-23T01:18:53;17.40;95.50
29547;DHT22;40782;47.264;11.330;2023-05-23T01:21:22;17.30;95.50
29547;DHT22;40782;47.264;11.330;2023-05-23T01:23:58;17.30;95.40
29547;DHT22;40782;47.264;11.330;2023-05-23T01:26:35;17.20;95.70
29547;DHT22;40782;47.264;11.330;2023-05-23T01:29:10;17.10;95.60
29547;DHT22;40782;47.264;11.330;2023-05-23T01:31:38;17.10;96.00
29547;DHT22;40782;47.264;11.330;2023-05-23T01:34:07;17.20;96.20
29547;DHT22;40782;47.264;11.330;2023-05-23T01:36:36;17.10;96.30
29547;DHT22;40782;47.264;11.330;2023-05-23T01:39:05;17.10;96.10
29547;DHT22;40782;47.264;11.330;2023-05-23T01:41:32;17.10;96.50
29547;DHT22;40782;47.264;11.330;2023-05-23T01:44:00;17.00;96.60
29547;DHT22;40782;47.264;11.330;2023-05-23T01:46:28;17.00;96.70
29547;DHT22;40782;47.264;11.330;2023-05-23T01:48:56;17.00;97.00
29547;DHT22;40782;47.264;11.330;2023-05-23T01:51:24;17.10;96.40
29547;DHT22;40782;47.264;11.330;2023-05-23T01:53:52;17.10;96.80
29547;DHT22;40782;47.264;11.330;2023-05-23T01:56:20;17.10;97.00
29547;DHT22;40782;47.264;11.330;2023-05-23T01:58:47;17.10;97.10
29547;DHT22;40782;47.264;11.330;2023-05-23T02:01:14;17.20;95.80
29547;DHT22;40782;47.264;11.330;2023-05-23T02:03:42;17.10;96.30
29547;DHT22;40782;47.264;11.330;2023-05-23T02:06:09;17.10;96.30
29547;DHT22;40782;47.264;11.330;2023-05-23T02:08:36;17.10;96.60
29547;DHT22;40782;47.264;11.330;2023-05-23T02:11:03;17.10;97.30
29547;DHT22;40782;47.264;11.330;2023-05-23T02:13:33;17.10;97.90
29547;DHT22;40782;47.264;11.330;2023-05-23T02:16:00;17.10;98.90
29547;DHT22;40782;47.264;11.330;2023-05-23T02:18:27;17.10;99.30
29547;DHT22;40782;47.264;11.330;2023-05-23T02:20:55;17.10;99.90
29547;DHT22;40782;47.264;11.330;2023-05-23T02:23:22;17.10;99.90
29547;DHT22;40782;47.264;11.330;2023-05-23T02:25:49;17.00;99.90
29547;DHT22;40782;47.264;11.330;2023-05-23T02:28:16;17.00;99.90
29547;DHT22;40782;47.264;11.330;2023-05-23T02:30:44;17.00;99.90
29547;DHT22;40782;47.264;11.330;2023-05-23T02:33:11;17.10;99.90
29547;DHT22;40782;47.264;11.330;2023-05-23T02:35:38;17.00;99.90
29547;DHT22;40782;47.264;11.330;2023-05-23T02:38:06;17.10;99.90
29547;DHT22;40782;47.264;11.330;2023-05-23T02:40:33;16.90;99.90
29547;DHT22;40782;47.264;11.330;2023-05-23T02:43:00;16.80;99.90
29547;DHT22;40782;47.264;11.330;2023-05-23T02:45:28;16.70;99.90
29547;DHT22;40782;47.264;11.330;2023-05-23T02:47:55;16.70;99.90
29547;DHT22;40782;47.264;11.330;2023-05-23T02:50:22;16.70;99.90
29547;DHT22;40782;47.264;11.330;2023-05-23T02:52:49;16.70;99.90
29547;DHT22;40782;47.264;11.330;2023-05-23T02:55:17;16.70;99.90
29547;DHT22;40782;47.264;11.330;2023-05-23T02:57:44;16.60;99.90
29547;DHT22;40782;47.264;11.330;2023-05-23T03:00:12;16.60;99.90
29547;DHT22;40782;47.264;11.330;2023-05-23T03:02:40;16.70;99.90
29547;DHT22;40782;47.264;11.330;2023-05-23T03:05:07;16.60;99.90
29547;DHT22;40782;47.264;11.330;2023-05-23T03:07:34;16.50;99.90
29547;DHT22;40782;47.264;11.330;2023-05-23T03:10:01;16.60;99.90
29547;DHT22;40782;47.264;11.330;2023-05-23T03:12:30;16.60;99.90
29547;DHT22;40782;47.264;11.330;2023-05-23T03:14:57;16.60;99.90
29547;DHT22;40782;47.264;11.330;2023-05-23T03:17:24;16.70;99.90
29547;DHT22;40782;47.264;11.330;2023-05-23T03:19:51;16.70;99.90
29547;DHT22;40782;47.264;11.330;2023-05-23T03:22:19;16.70;99.90
29547;DHT22;40782;47.264;11.330;2023-05-23T03:24:46;16.60;99.90
29547;DHT22;40782;47.264;11.330;2023-05-23T03:27:13;16.60;99.90
29547;DHT22;40782;47.264;11.330;2023-05-23T03:29:41;16.50;99.90
29547;DHT22;40782;47.264;11.330;2023-05-23T03:32:08;16.60;99.90
29547;DHT22;40782;47.264;11.330;2023-05-23T03:34:35;16.60;99.90
29547;DHT22;40782;47.264;11.330;2023-05-23T03:37:03;16.60;99.90
29547;DHT22;40782;47.264;11.330;2023-05-23T03:39:30;16.50;99.90
29547;DHT22;40782;47.264;11.330;2023-05-23T03:41:57;16.40;99.90
29547;DHT22;40782;47.264;11.330;2023-05-23T03:44:24;16.40;99.90
29547;DHT22;40782;47.264;11.330;2023-05-23T03:46:52;16.50;99.90
29547;DHT22;40782;47.264;11.330;2023-05-23T03:49:19;16.50;99.90
29547;DHT22;40782;47.264;11.330;2023-05-23T03:51:46;16.50;99.90
29547;DHT22;40782;47.264;11.330;2023-05-23T03:54:13;16.50;99.90
29547;DHT22;40782;47.264;11.330;2023-05-23T03:56:42;16.60;99.90
29547;DHT22;40782;47.264;11.330;2023-05-23T03:59:09;16.60;99.90
29547;DHT22;40782;47.264;11.330;2023-05-23T04:01:35;16.60;99.90
29547;DHT22;40782;47.264;11.330;2023-05-23T04:04:05;16.60;99.90
29547;DHT22;40782;47.264;11.330;2023-05-23T04:06:32;16.60;99.90
29547;DHT22;40782;47.264;11.330;2023-05-23T04:08:59;16.70;99.90
29547;DHT22;40782;47.264;11.330;2023-05-23T04:11:26;16.70;99.90
29547;DHT22;40782;47.264;11.330;2023-05-23T04:13:54;16.50;99.90
29547;DHT22;40782;47.264;11.330;2023-05-23T04:16:21;16.40;99.90
29547;DHT22;40782;47.264;11.330;2023-05-23T04:18:48;16.30;99.90
29547;DHT22;40782;47.264;11.330;2023-05-23T04:21:17;16.30;99.90
29547;DHT22;40782;47.264;11.330;2023-05-23T04:23:45;16.10;99.90
29547;DHT22;40782;47.264;11.330;2023-05-23T04:26:12;16.10;99.90
29547;DHT22;40782;47.264;11.330;2023-05-23T04:28:39;16.00;99.90
29547;DHT22;40782;47.264;11.330;2023-05-23T04:31:08;16.00;99.90
29547;DHT22;40782;47.264;11.330;2023-05-23T04:33:35;16.10;99.90
29547;DHT22;40782;47.264;11.330;2023-05-23T04:36:02;16.00;99.90
29547;DHT22;40782;47.264;11.330;2023-05-23T04:38:31;16.00;99.90
29547;DHT22;40782;47.264;11.330;2023-05-23T04:40:58;15.90;99.90
29547;DHT22;40782;47.264;11.330;2023-05-23T04:43:25;16.00;99.90
29547;DHT22;40782;47.264;11.330;2023-05-23T04:45:53;16.00;99.90
29547;DHT22;40782;47.264;11.330;2023-05-23T04:48:22;16.00;99.90
29547;DHT22;40782;47.264;11.330;2023-05-23T04:50:49;16.00;99.90
29547;DHT22;40782;47.264;11.330;2023-05-23T04:53:17;16.00;99.90
29547;DHT22;40782;47.264;11.330;2023-05-23T04:55:45;15.90;99.90
29547;DHT22;40782;47.264;11.330;2023-05-23T04:58:12;16.00;99.90
29547;DHT22;40782;47.264;11.330;2023-05-23T05:00:39;16.00;99.90
29547;DHT22;40782;47.264;11.330;2023-05-23T05:03:06;15.90;99.90
29547;DHT22;40782;47.264;11.330;2023-05-23T05:05:34;15.90;99.90
29547;DHT22;40782;47.264;11.330;2023-05-23T05:08:01;15.90;99.90
29547;DHT22;40782;47.264;11.330;2023-05-23T05:10:28;15.90;99.90
29547;DHT22;40782;47.264;11.330;2023-05-23T05:12:57;15.90;99.90
29547;DHT22;40782;47.264;11.330;2023-05-23T05:15:24;15.90;99.90
29547;DHT22;40782;47.264;11.330;2023-05-23T05:17:51;16.00;99.90
29547;DHT22;40782;47.264;11.330;2023-05-23T05:20:18;16.10;99.90
29547;DHT22;40782;47.264;11.330;2023-05-23T05:22:46;16.20;99.90
29547;DHT22;40782;47.264;11.330;2023-05-23T05:25:13;16.20;99.90
29547;DHT22;40782;47.264;11.330;2023-05-23T05:27:40;16.30;99.90
29547;DHT22;40782;47.264;11.330;2023-05-23T05:30:09;16.30;99.90
29547;DHT22;40782;47.264;11.330;2023-05-23T05:32:37;16.30;99.90
29547;DHT22;40782;47.264;11.330;2023-05-23T05:35:04;16.40;99.90
29547;DHT22;40782;47.264;11.330;2023-05-23T05:37:32;16.40;99.90
29547;DHT22;40782;47.264;11.330;2023-05-23T05:39:59;16.50;99.90
29547;DHT22;40782;47.264;11.330;2023-05-23T05:42:31;16.50;99.90
29547;DHT22;40782;47.264;11.330;2023-05-23T05:44:58;16.60;99.90
29547;DHT22;40782;47.264;11.330;2023-05-23T05:47:26;16.60;99.90
29547;DHT22;40782;47.264;11.330;2023-05-23T05:49:53;16.60;99.90
29547;DHT22;40782;47.264;11.330;2023-05-23T05:52:20;16.60;99.90
29547;DHT22;40782;47.264;11.330;2023-05-23T05:54:47;16.60;99.90
29547;DHT22;40782;47.264;11.330;2023-05-23T05:57:14;16.70;99.90
29547;DHT22;40782;47.264;11.330;2023-05-23T05:59:41;16.70;99.90
29547;DHT22;40782;47.264;11.330;2023-05-23T06:02:08;16.60;99.90
29547;DHT22;40782;47.264;11.330;2023-05-23T06:04:37;16.70;99.90
29547;DHT22;40782;47.264;11.330;2023-05-23T06:07:04;16.70;99.90
29547;DHT22;40782;47.264;11.330;2023-05-23T06:09:31;16.80;99.90
29547;DHT22;40782;47.264;11.330;2023-05-23T06:11:58;16.90;99.90
29547;DHT22;40782;47.264;11.330;2023-05-23T06:14:25;16.80;99.90
29547;DHT22;40782;47.264;11.330;2023-05-23T06:16:52;16.90;99.90
29547;DHT22;40782;47.264;11.330;2023-05-23T06:19:19;16.80;99.90
29547;DHT22;40782;47.264;11.330;2023-05-23T06:21:49;16.60;99.90
29547;DHT22;40782;47.264;11.330;2023-05-23T06:24:16;16.50;99.90
29547;DHT22;40782;47.264;11.330;2023-05-23T06:26:43;16.30;99.90
29547;DHT22;40782;47.264;11.330;2023-05-23T06:29:10;16.40;99.90
29547;DHT22;40782;47.264;11.330;2023-05-23T06:31:37;16.60;99.90
29547;DHT22;40782;47.264;11.330;2023-05-23T06:34:04;16.70;99.90
29547;DHT22;40782;47.264;11.330;2023-05-23T06:36:31;16.60;99.90
29547;DHT22;40782;47.264;11.330;2023-05-23T06:38:59;16.60;99.90
29547;DHT22;40782;47.264;11.330;2023-05-23T06:41:26;16.50;99.90
29547;DHT22;40782;47.264;11.330;2023-05-23T06:43:53;16.60;99.90
29547;DHT22;40782;47.264;11.330;2023-05-23T06:46:20;16.60;99.90
29547;DHT22;40782;47.264;11.330;2023-05-23T06:48:47;16.60;99.90
29547;DHT22;40782;47.264;11.330;2023-05-23T06:51:14;16.60;99.90
29547;DHT22;40782;47.264;11.330;2023-05-23T06:53:41;16.70;99.90
29547;DHT22;40782;47.264;11.330;2023-05-23T06:56:10;16.70;99.90
29547;DHT22;40782;47.264;11.330;2023-05-23T06:58:37;16.70;99.90
29547;DHT22;40782;47.264;11.330;2023-05-23T07:01:04;16.80;99.90
29547;DHT22;40782;47.264;11.330;2023-05-23T07:03:31;16.80;99.90
29547;DHT22;40782;47.264;11.330;2023-05-23T07:05:58;16.80;99.90
29547;DHT22;40782;47.264;11.330;2023-05-23T07:08:25;16.80;99.90
29547;DHT22;40782;47.264;11.330;2023-05-23T07:10:52;16.90;99.90
29547;DHT22;40782;47.264;11.330;2023-05-23T07:13:21;16.90;99.90
29547;DHT22;40782;47.264;11.330;2023-05-23T07:15:48;16.80;99.90
29547;DHT22;40782;47.264;11.330;2023-05-23T07:18:15;16.80;99.90
29547;DHT22;40782;47.264;11.330;2023-05-23T07:20:42;16.80;99.90
29547;DHT22;40782;47.264;11.330;2023-05-23T07:23:09;16.80;99.90
29547;DHT22;40782;47.264;11.330;2023-05-23T07:25:36;16.80;99.90
29547;DHT22;40782;47.264;11.330;2023-05-23T07:28:04;16.80;99.90
29547;DHT22;40782;47.264;11.330;2023-05-23T07:30:33;16.80;99.90
29547;DHT22;40782;47.264;11.330;2023-05-23T07:33:00;16.80;99.90
29547;DHT22;40782;47.264;11.330;2023-05-23T07:35:27;16.70;99.90
29547;DHT22;40782;47.264;11.330;2023-05-23T07:37:54;16.70;99.90
29547;DHT22;40782;47.264;11.330;2023-05-23T07:40:22;16.70;99.90
29547;DHT22;40782;47.264;11.330;2023-05-23T07:42:49;16.70;99.90
29547;DHT22;40782;47.264;11.330;2023-05-23T07:45:17;16.80;99.90
29547;DHT22;40782;47.264;11.330;2023-05-23T07:47:46;16.90;99.90
29547;DHT22;40782;47.264;11.330;2023-05-23T07:50:13;17.00;99.90
29547;DHT22;40782;47.264;11.330;2023-05-23T07:52:40;16.90;99.90
29547;DHT22;40782;47.264;11.330;2023-05-23T07:55:08;16.90;99.90
29547;DHT22;40782;47.264;11.330;2023-05-23T07:57:36;17.00;99.90
29547;DHT22;40782;47.264;11.330;2023-05-23T08:00:04;17.00;99.90
29547;DHT22;40782;47.264;11.330;2023-05-23T08:02:31;17.00;99.90
29547;DHT22;40782;47.264;11.330;2023-05-23T08:05:00;16.90;99.90
29547;DHT22;40782;47.264;11.330;2023-05-23T08:07:27;16.90;99.90
29547;DHT22;40782;47.264;11.330;2023-05-23T08:09:54;16.80;99.90
29547;DHT22;40782;47.264;11.330;2023-05-23T08:12:21;16.70;99.90
29547;DHT22;40782;47.264;11.330;2023-05-23T08:14:48;16.70;99.90
29547;DHT22;40782;47.264;11.330;2023-05-23T08:17:15;16.90;99.90
29547;DHT22;40782;47.264;11.330;2023-05-23T08:19:42;17.00;99.90
29547;DHT22;40782;47.264;11.330;2023-05-23T08:22:10;17.10;99.90
29547;DHT22;40782;47.264;11.330;2023-05-23T08:24:37;17.10;99.90
29547;DHT22;40782;47.264;11.330;2023-05-23T08:27:05;17.10;99.90
29547;DHT22;40782;47.264;11.330;2023-05-23T08:29:32;17.20;99.90
29547;DHT22;40782;47.264;11.330;2023-05-23T08:31:59;17.30;99.90
29547;DHT22;40782;47.264;11.330;2023-05-23T08:34:26;17.30;99.90
29547;DHT22;40782;47.264;11.330;2023-05-23T08:36:53;17.40;99.90
29547;DHT22;40782;47.264;11.330;2023-05-23T08:39:22;17.50;99.90
29547;DHT22;40782;47.264;11.330;2023-05-23T08:41:49;17.50;99.90
29547;DHT22;40782;47.264;11.330;2023-05-23T08:44:16;17.50;99.90
29547;DHT22;40782;47.264;11.330;2023-05-23T08:46:43;17.60;99.90
29547;DHT22;40782;47.264;11.330;2023-05-23T08:49:11;17.70;99.90
29547;DHT22;40782;47.264;11.330;2023-05-23T08:51:41;17.70;99.90
29547;DHT22;40782;47.264;11.330;2023-05-23T08:54:09;17.90;99.90
29547;DHT22;40782;47.264;11.330;2023-05-23T08:56:39;18.00;99.90
29547;DHT22;40782;47.264;11.330;2023-05-23T08:59:07;18.00;99.90
29547;DHT22;40782;47.264;11.330;2023-05-23T09:01:34;18.00;99.90
29547;DHT22;40782;47.264;11.330;2023-05-23T09:04:01;18.10;99.90
29547;DHT22;40782;47.264;11.330;2023-05-23T09:06:31;18.10;99.90
29547;DHT22;40782;47.264;11.330;2023-05-23T09:08:58;18.20;99.90
29547;DHT22;40782;47.264;11.330;2023-05-23T09:11:26;18.40;99.90
29547;DHT22;40782;47.264;11.330;2023-05-23T09:13:54;18.50;99.90
29547;DHT22;40782;47.264;11.330;2023-05-23T09:16:22;18.50;99.90
29547;DHT22;40782;47.264;11.330;2023-05-23T09:18:49;18.60;99.90
29547;DHT22;40782;47.264;11.330;2023-05-23T09:21:16;18.60;99.90
29547;DHT22;40782;47.264;11.330;2023-05-23T09:23:43;18.80;99.90
29547;DHT22;40782;47.264;11.330;2023-05-23T09:26:10;18.80;99.90
29547;DHT22;40782;47.264;11.330;2023-05-23T09:28:38;18.80;99.90
29547;DHT22;40782;47.264;11.330;2023-05-23T09:31:07;19.10;99.90
29547;DHT22;40782;47.264;11.330;2023-05-23T09:33:35;19.50;99.90
29547;DHT22;40782;47.264;11.330;2023-05-23T09:36:03;19.50;99.90
29547;DHT22;40782;47.264;11.330;2023-05-23T09:38:30;19.60;99.90
29547;DHT22;40782;47.264;11.330;2023-05-23T09:40:58;19.60;99.90
29547;DHT22;40782;47.264;11.330;2023-05-23T09:43:26;19.60;99.90
29547;DHT22;40782;47.264;11.330;2023-05-23T09:45:54;19.70;99.90
29547;DHT22;40782;47.264;11.330;2023-05-23T09:48:28;19.50;99.90
29547;DHT22;40782;47.264;11.330;2023-05-23T09:50:56;19.90;99.90
29547;DHT22;40782;47.264;11.330;2023-05-23T09:53:23;20.20;99.90
29547;DHT22;40782;47.264;11.330;2023-05-23T09:55:50;20.10;99.90
29547;DHT22;40782;47.264;11.330;2023-05-23T09:58:18;20.30;99.90
29547;DHT22;40782;47.264;11.330;2023-05-23T10:00:46;20.40;99.90
29547;DHT22;40782;47.264;11.330;2023-05-23T10:03:15;20.70;99.90
29547;DHT22;40782;47.264;11.330;2023-05-23T10:05:45;20.70;99.90
29547;DHT22;40782;47.264;11.330;2023-05-23T10:08:13;20.60;99.90
29547;DHT22;40782;47.264;11.330;2023-05-23T10:13:26;21.00;99.90
29547;DHT22;40782;47.264;11.330;2023-05-23T10:15:54;21.30;99.90
29547;DHT22;40782;47.264;11.330;2023-05-23T10:18:22;21.30;99.90
29547;DHT22;40782;47.264;11.330;2023-05-23T10:20:53;21.40;99.90
29547;DHT22;40782;47.264;11.330;2023-05-23T10:23:21;21.90;99.90
29547;DHT22;40782;47.264;11.330;2023-05-23T10:25:48;22.30;99.90
29547;DHT22;40782;47.264;11.330;2023-05-23T10:28:16;22.80;99.90
29547;DHT22;40782;47.264;11.330;2023-05-23T10:30:43;23.10;99.90
29547;DHT22;40782;47.264;11.330;2023-05-23T10:33:10;23.40;99.90
29547;DHT22;40782;47.264;11.330;2023-05-23T10:35:41;23.00;99.90
29547;DHT22;40782;47.264;11.330;2023-05-23T10:38:16;22.90;99.90
29547;DHT22;40782;47.264;11.330;2023-05-23T10:40:49;23.00;99.90
29547;DHT22;40782;47.264;11.330;2023-05-23T10:43:22;22.60;99.90
29547;DHT22;40782;47.264;11.330;2023-05-23T10:45:52;22.90;99.90
29547;DHT22;40782;47.264;11.330;2023-05-23T10:48:19;23.70;99.90
29547;DHT22;40782;47.264;11.330;2023-05-23T10:51:00;23.50;99.90
29547;DHT22;40782;47.264;11.330;2023-05-23T10:53:31;24.10;99.90
29547;DHT22;40782;47.264;11.330;2023-05-23T10:55:58;23.70;99.90
29547;DHT22;40782;47.264;11.330;2023-05-23T10:58:28;23.60;99.90
29547;DHT22;40782;47.264;11.330;2023-05-23T11:00:55;23.40;99.90
29547;DHT22;40782;47.264;11.330;2023-05-23T11:03:29;24.10;99.90
29547;DHT22;40782;47.264;11.330;2023-05-23T11:05:58;24.80;98.60
29547;DHT22;40782;47.264;11.330;2023-05-23T11:08:25;25.00;97.30
29547;DHT22;40782;47.264;11.330;2023-05-23T11:10:57;24.00;99.80
29547;DHT22;40782;47.264;11.330;2023-05-23T11:13:25;24.50;99.90
29547;DHT22;40782;47.264;11.330;2023-05-23T11:15:52;25.20;99.20
29547;DHT22;40782;47.264;11.330;2023-05-23T11:18:20;25.30;98.90
29547;DHT22;40782;47.264;11.330;2023-05-23T11:20:48;24.60;98.90
29547;DHT22;40782;47.264;11.330;2023-05-23T11:23:17;24.00;99.50
29547;DHT22;40782;47.264;11.330;2023-05-23T11:25:45;24.10;99.20
29547;DHT22;40782;47.264;11.330;2023-05-23T11:28:14;24.70;98.80
29547;DHT22;40782;47.264;11.330;2023-05-23T11:30:42;24.60;97.70
29547;DHT22;40782;47.264;11.330;2023-05-23T11:33:09;24.00;98.00
29547;DHT22;40782;47.264;11.330;2023-05-23T11:35:38;24.60;98.00
29547;DHT22;40782;47.264;11.330;2023-05-23T11:38:05;24.90;98.30
29547;DHT22;40782;47.264;11.330;2023-05-23T11:40:33;25.10;98.30
29547;DHT22;40782;47.264;11.330;2023-05-23T11:43:01;25.60;96.90
29547;DHT22;40782;47.264;11.330;2023-05-23T11:45:30;25.80;95.80
29547;DHT22;40782;47.264;11.330;2023-05-23T11:47:57;25.90;95.70
29547;DHT22;40782;47.264;11.330;2023-05-23T11:50:25;26.20;94.70
29547;DHT22;40782;47.264;11.330;2023-05-23T11:52:53;26.70;94.50
29547;DHT22;40782;47.264;11.330;2023-05-23T11:55:21;26.30;95.20
29547;DHT22;40782;47.264;11.330;2023-05-23T11:57:48;26.60;95.30
29547;DHT22;40782;47.264;11.330;2023-05-23T12:00:16;27.40;93.70
29547;DHT22;40782;47.264;11.330;2023-05-23T12:02:45;27.80;92.80
29547;DHT22;40782;47.264;11.330;2023-05-23T12:05:13;27.10;92.40
29547;DHT22;40782;47.264;11.330;2023-05-23T12:07:40;27.40;92.40
29547;DHT22;40782;47.264;11.330;2023-05-23T12:10:08;27.80;92.80
29547;DHT22;40782;47.264;11.330;2023-05-23T12:12:35;27.90;92.40
29547;DHT22;40782;47.264;11.330;2023-05-23T12:15:03;28.20;93.40
29547;DHT22;40782;47.264;11.330;2023-05-23T12:17:30;28.60;93.60
29547;DHT22;40782;47.264;11.330;2023-05-23T12:20:00;28.80;91.90
29547;DHT22;40782;47.264;11.330;2023-05-23T12:22:27;28.80;90.40
29547;DHT22;40782;47.264;11.330;2023-05-23T12:24:54;29.20;91.00
29547;DHT22;40782;47.264;11.330;2023-05-23T12:27:25;29.70;90.20
29547;DHT22;40782;47.264;11.330;2023-05-23T12:29:54;30.40;86.40
29547;DHT22;40782;47.264;11.330;2023-05-23T12:32:30;30.30;85.80
29547;DHT22;40782;47.264;11.330;2023-05-23T12:34:57;29.10;81.90
29547;DHT22;40782;47.264;11.330;2023-05-23T12:37:25;29.30;83.50
29547;DHT22;40782;47.264;11.330;2023-05-23T12:39:52;29.70;85.70
29547;DHT22;40782;47.264;11.330;2023-05-23T12:42:19;29.60;84.90
29547;DHT22;40782;47.264;11.330;2023-05-23T12:44:49;29.00;81.10
29547;DHT22;40782;47.264;11.330;2023-05-23T12:47:16;28.40;81.60
29547;DHT22;40782;47.264;11.330;2023-05-23T12:49:43;27.80;80.80
29547;DHT22;40782;47.264;11.330;2023-05-23T12:52:11;26.90;82.40
29547;DHT22;40782;47.264;11.330;2023-05-23T12:54:40;26.50;82.40
29547;DHT22;40782;47.264;11.330;2023-05-23T12:57:07;26.00;84.60
29547;DHT22;40782;47.264;11.330;2023-05-23T12:59:34;26.20;83.90
29547;DHT22;40782;47.264;11.330;2023-05-23T13:02:01;25.90;83.80
29547;DHT22;40782;47.264;11.330;2023-05-23T13:04:28;25.60;84.40
29547;DHT22;40782;47.264;11.330;2023-05-23T13:06:55;25.70;83.20
29547;DHT22;40782;47.264;11.330;2023-05-23T13:09:22;25.00;82.00
29547;DHT22;40782;47.264;11.330;2023-05-23T13:11:51;24.90;84.40
29547;DHT22;40782;47.264;11.330;2023-05-23T13:14:18;25.20;86.60
29547;DHT22;40782;47.264;11.330;2023-05-23T13:16:45;25.10;89.40
29547;DHT22;40782;47.264;11.330;2023-05-23T13:19:12;24.70;90.10
29547;DHT22;40782;47.264;11.330;2023-05-23T13:21:39;24.60;90.30
29547;DHT22;40782;47.264;11.330;2023-05-23T13:24:07;24.70;90.50
29547;DHT22;40782;47.264;11.330;2023-05-23T13:26:34;24.60;91.40
29547;DHT22;40782;47.264;11.330;2023-05-23T13:29:04;24.40;92.90
29547;DHT22;40782;47.264;11.330;2023-05-23T13:31:31;24.50;93.10
29547;DHT22;40782;47.264;11.330;2023-05-23T13:33:58;24.40;93.90
29547;DHT22;40782;47.264;11.330;2023-05-23T13:36:25;24.40;93.30
29547;DHT22;40782;47.264;11.330;2023-05-23T13:38:53;24.30;93.00
29547;DHT22;40782;47.264;11.330;2023-05-23T13:41:20;24.20;93.40
29547;DHT22;40782;47.264;11.330;2023-05-23T13:43:47;24.00;94.00
29547;DHT22;40782;47.264;11.330;2023-05-23T13:46:16;23.80;94.00
29547;DHT22;40782;47.264;11.330;2023-05-23T13:48:43;23.70;94.50
29547;DHT22;40782;47.264;11.330;2023-05-23T13:51:10;23.70;95.10
29547;DHT22;40782;47.264;11.330;2023-05-23T13:53:37;23.60;95.50
29547;DHT22;40782;47.264;11.330;2023-05-23T13:56:04;23.50;95.90
29547;DHT22;40782;47.264;11.330;2023-05-23T13:58:31;23.30;96.10
29547;DHT22;40782;47.264;11.330;2023-05-23T14:00:58;23.20;96.50
29547;DHT22;40782;47.264;11.330;2023-05-23T14:03:27;23.40;96.60
29547;DHT22;40782;47.264;11.330;2023-05-23T14:05:54;23.40;96.90
29547;DHT22;40782;47.264;11.330;2023-05-23T14:08:21;23.50;96.10
29547;DHT22;40782;47.264;11.330;2023-05-23T14:10:48;23.40;96.00
29547;DHT22;40782;47.264;11.330;2023-05-23T14:13:15;23.20;97.00
29547;DHT22;40782;47.264;11.330;2023-05-23T14:15:42;23.10;96.20
29547;DHT22;40782;47.264;11.330;2023-05-23T14:18:09;23.10;95.20
29547;DHT22;40782;47.264;11.330;2023-05-23T14:20:38;23.20;95.00
29547;DHT22;40782;47.264;11.330;2023-05-23T14:23:05;23.10;94.80
29547;DHT22;40782;47.264;11.330;2023-05-23T14:25:32;23.10;94.30
29547;DHT22;40782;47.264;11.330;2023-05-23T14:27:59;23.20;93.40
29547;DHT22;40782;47.264;11.330;2023-05-23T14:30:26;23.50;92.80
29547;DHT22;40782;47.264;11.330;2023-05-23T14:32:53;24.00;93.00
29547;DHT22;40782;47.264;11.330;2023-05-23T14:35:20;24.70;92.20
29547;DHT22;40782;47.264;11.330;2023-05-23T14:37:49;25.10;90.90
29547;DHT22;40782;47.264;11.330;2023-05-23T14:40:16;24.80;91.40
29547;DHT22;40782;47.264;11.330;2023-05-23T14:42:43;24.70;92.80
29547;DHT22;40782;47.264;11.330;2023-05-23T14:45:10;24.70;93.10
29547;DHT22;40782;47.264;11.330;2023-05-23T14:47:37;25.30;93.70
29547;DHT22;40782;47.264;11.330;2023-05-23T14:50:05;25.70;92.70
29547;DHT22;40782;47.264;11.330;2023-05-23T14:52:32;26.00;92.30
29547;DHT22;40782;47.264;11.330;2023-05-23T14:55:00;26.50;91.70
29547;DHT22;40782;47.264;11.330;2023-05-23T14:57:27;27.00;90.30
29547;DHT22;40782;47.264;11.330;2023-05-23T14:59:55;27.40;90.80
29547;DHT22;40782;47.264;11.330;2023-05-23T15:02:22;27.50;90.80
29547;DHT22;40782;47.264;11.330;2023-05-23T15:04:49;27.90;89.10
29547;DHT22;40782;47.264;11.330;2023-05-23T15:07:16;28.10;90.00
29547;DHT22;40782;47.264;11.330;2023-05-23T15:09:43;28.20;90.00
29547;DHT22;40782;47.264;11.330;2023-05-23T15:12:12;28.60;89.40
29547;DHT22;40782;47.264;11.330;2023-05-23T15:14:39;29.00;88.70
29547;DHT22;40782;47.264;11.330;2023-05-23T15:17:07;28.30;86.60
29547;DHT22;40782;47.264;11.330;2023-05-23T15:19:34;27.80;88.10
29547;DHT22;40782;47.264;11.330;2023-05-23T15:24:29;26.00;90.60